»·PEaware :: N316AS KVNY-KCNO

N316AS :: KVNY-KCNO

FLIGHT INFORMATION

Flight Status: Arrived
Operator: Privately registered:
United States
More flights under this callsign
Pilot: Aero Safety Training (369)
Aircraft: CESSNA 172 SKYHAWK
(C172)
More flights by this aircraft type
Origin: KVNY Van Nuys
United States
Destination: KCNO Chino
United States
More flights between these airports :: More routes between these airports
Route: GLEND1 ADAMM V186 PDZ
File this flight plan on PilotEdge
Remarks: TEC ROUTE, APPROCHES TO KCNO
Altitude:
(Current/Filed)
5,000ft
Speed:
(Current/Filed)
110kts
Departed: 22-Oct-14 09:17 AM
Arrived: 22-Oct-14 09:59 AM
Distance/Time
Traveled:
45nm/0:42
Distance/Time
To Go:
Arrived

Flight Plot

Page will automatically refresh every two minutes.


Map Options




Map Legend


Flown Route
Filed Route
Departure Airport
Arrival Airport
Navaid (VOR, NDB)
Fix

Horizontal Profiles

Position Reports

Time Latitude Longitude Heading Altitude Ground
Speed
22-Oct-14 08:52 34.216840 -118.495563 157 805ft 0kts
22-Oct-14 08:53 34.216837 -118.495562 157 805ft 0kts
22-Oct-14 08:54 34.216834 -118.495560 157 805ft 0kts
22-Oct-14 08:55 34.216832 -118.495559 157 805ft 0kts
22-Oct-14 08:56 34.216829 -118.495558 157 805ft 0kts
22-Oct-14 08:57 34.216826 -118.495557 157 805ft 0kts
22-Oct-14 08:58 34.216824 -118.495555 157 805ft 0kts
22-Oct-14 08:59 34.216821 -118.495554 157 805ft 0kts
22-Oct-14 09:00 34.216818 -118.495553 157 805ft 0kts
22-Oct-14 09:01 34.216816 -118.495551 157 805ft 0kts
22-Oct-14 09:02 34.216813 -118.495550 157 805ft 0kts
22-Oct-14 09:03 34.216811 -118.495549 157 805ft 0kts
22-Oct-14 09:04 34.216808 -118.495548 157 805ft 0kts
22-Oct-14 09:05 34.216805 -118.495546 157 805ft 0kts
22-Oct-14 09:06 34.216202 -118.492736 94 805ft 1kts
22-Oct-14 09:07 34.218019 -118.491881 86 805ft 0kts
22-Oct-14 09:08 34.218019 -118.491876 86 805ft 0kts
22-Oct-14 09:09 34.218019 -118.491872 86 805ft 0kts
22-Oct-14 09:10 34.218019 -118.491868 86 805ft 0kts
22-Oct-14 09:11 34.218019 -118.491864 86 805ft 0kts
22-Oct-14 09:12 34.218020 -118.491860 86 805ft 0kts
22-Oct-14 09:13 34.218020 -118.491856 86 805ft 0kts
22-Oct-14 09:14 34.218020 -118.491852 86 805ft 0kts
22-Oct-14 09:15 34.218020 -118.491848 86 805ft 0kts
22-Oct-14 09:16 34.212315 -118.490596 175 881ft 69kts
22-Oct-14 09:17 34.192027 -118.487915 171 1651ft 74kts
22-Oct-14 09:18 34.174821 -118.473898 120 2354ft 79kts
22-Oct-14 09:19 34.169020 -118.447156 88 3246ft 86kts
22-Oct-14 09:20 34.169097 -118.417728 90 4123ft 85kts
22-Oct-14 09:21 34.169094 -118.389342 90 4928ft 86kts
22-Oct-14 09:22 34.167514 -118.356242 94 4975ft 101kts
22-Oct-14 09:23 34.166277 -118.322706 91 5053ft 98kts
22-Oct-14 09:24 34.162030 -118.289721 110 5077ft 100kts
22-Oct-14 09:25 34.153291 -118.256757 107 5063ft 105kts
22-Oct-14 09:26 34.142574 -118.224077 116 5085ft 104kts
22-Oct-14 09:27 34.127732 -118.192962 119 5062ft 107kts
22-Oct-14 09:28 34.117627 -118.158912 110 5043ft 110kts
22-Oct-14 09:29 34.108909 -118.121837 104 5154ft 121kts
22-Oct-14 09:30 34.100441 -118.083298 108 4931ft 111kts
22-Oct-14 09:31 34.088713 -118.049056 112 4974ft 108kts
22-Oct-14 09:32 34.077996 -118.014966 104 4972ft 104kts
22-Oct-14 09:33 34.068630 -117.981345 109 4970ft 106kts
22-Oct-14 09:34 34.057785 -117.947204 110 5021ft 111kts
22-Oct-14 09:35 34.047274 -117.911595 111 4965ft 110kts
22-Oct-14 09:36 34.035451 -117.878418 111 4966ft 102kts
22-Oct-14 09:37 34.026513 -117.845187 111 4946ft 106kts
22-Oct-14 09:38 34.015406 -117.811936 113 4951ft 106kts
22-Oct-14 09:39 34.006440 -117.778881 108 5023ft 102kts
22-Oct-14 09:40 33.995541 -117.746146 114 4992ft 107kts
22-Oct-14 09:41 33.984122 -117.712461 110 4969ft 108kts
22-Oct-14 09:42 33.972211 -117.679147 115 4957ft 108kts
22-Oct-14 09:43 33.961010 -117.645344 110 4952ft 108kts
22-Oct-14 09:44 33.948992 -117.612420 114 4988ft 105kts
22-Oct-14 09:45 33.937878 -117.580819 109 4827ft 99kts
22-Oct-14 09:46 33.927127 -117.550249 122 4302ft 99kts
22-Oct-14 09:47 33.917206 -117.520546 82 3949ft 99kts
22-Oct-14 09:48 33.921305 -117.487305 80 3967ft 100kts
22-Oct-14 09:49 33.926255 -117.454411 79 3627ft 99kts
22-Oct-14 09:50 33.936157 -117.426407 5 3171ft 104kts
22-Oct-14 09:51 33.962530 -117.440003 302 3223ft 109kts
22-Oct-14 09:52 33.974922 -117.469242 273 3308ft 84kts
22-Oct-14 09:53 33.976984 -117.501426 267 2768ft 103kts
22-Oct-14 09:54 33.976678 -117.533473 267 2253ft 90kts
22-Oct-14 09:55 33.976630 -117.564218 264 1756ft 90kts
22-Oct-14 09:56 33.976344 -117.594281 271 1320ft 89kts
22-Oct-14 09:57 33.975989 -117.622804 269 827ft 68kts
22-Oct-14 09:58 33.975792 -117.637352 278 655ft 13kts
22-Oct-14 09:59 33.976414 -117.637194 47 655ft 1kts
22-Oct-14 10:00 33.978247 -117.635541 322 655ft 11kts
22-Oct-14 10:01 33.978135 -117.636648 177 655ft 0kts
22-Oct-14 10:02 33.978133 -117.636648 177 655ft 0kts

Navigation Log

Ident Type
1. KVNY Airport
2. ADAMM Fix
3. BAYJY Fix
4. TIFNI Fix
5. PDZ Navaid
6. KCNO Airport